Time;durP1;ratioP1;P1;durP2;ratioP2;P2;SDS_P1;SDS_P2;PMS_P1;PMS_P2;Temp;Humidity;BMP_temperature;BMP_pressure;BME280_temperature;BME280_humidity;BME280_pressure;Samples;Min_cycle;Max_cycle;Signal;HPM_P1;HPM_P2
2023/05/28 00:00:26;;;;;;;5.50;1.85;;;20.70;1.00;;;;;;4993074;28;20073;-49
2023/05/28 00:02:53;;;;;;;5.47;2.42;;;20.80;1.00;;;;;;4993507;28;20038;-50
2023/05/28 00:05:20;;;;;;;4.82;1.88;;;20.70;1.00;;;;;;4993116;28;20113;-49
2023/05/28 00:07:47;;;;;;;5.57;2.20;;;20.70;1.00;;;;;;4993197;28;20030;-48
2023/05/28 00:10:14;;;;;;;4.50;2.40;;;20.70;1.00;;;;;;4993066;28;20035;-50
2023/05/28 00:12:41;;;;;;;5.13;1.63;;;20.70;1.00;;;;;;4993407;28;20462;-52
2023/05/28 00:15:08;;;;;;;7.20;2.15;;;20.70;1.00;;;;;;4993308;28;20089;-47
2023/05/28 00:17:35;;;;;;;5.72;2.20;;;20.70;1.00;;;;;;4992893;28;20062;-48
2023/05/28 00:20:03;;;;;;;4.65;2.00;;;20.70;1.00;;;;;;4992951;28;20117;-48
2023/05/28 00:22:30;;;;;;;4.25;2.03;;;20.70;1.00;;;;;;4992870;28;20065;-48
2023/05/28 00:24:57;;;;;;;8.90;2.45;;;20.70;1.00;;;;;;4992988;28;20284;-49
2023/05/28 00:27:26;;;;;;;4.72;1.42;;;20.70;1.00;;;;;;4992358;28;20414;-48
2023/05/28 00:29:53;;;;;;;6.22;2.95;;;20.70;1.00;;;;;;4991154;28;20104;-48
2023/05/28 00:32:20;;;;;;;4.05;2.38;;;20.70;1.00;;;;;;4991207;28;20049;-49
2023/05/28 00:34:47;;;;;;;5.80;2.47;;;20.70;1.00;;;;;;4991281;28;20147;-48
2023/05/28 00:37:14;;;;;;;4.30;1.95;;;20.70;1.00;;;;;;4991189;28;20042;-50
2023/05/28 00:39:40;;;;;;;5.95;2.58;;;20.60;1.00;;;;;;4991172;28;20081;-48
2023/05/28 00:42:08;;;;;;;5.90;1.88;;;20.70;1.00;;;;;;4991124;28;20046;-48
2023/05/28 00:44:35;;;;;;;5.85;1.80;;;20.70;1.00;;;;;;4992009;28;20050;-51
2023/05/28 00:47:02;;;;;;;5.95;2.08;;;20.70;1.00;;;;;;4991237;28;20121;-48
2023/05/28 00:49:30;;;;;;;7.00;2.72;;;20.70;1.00;;;;;;4992272;28;20394;-48
2023/05/28 00:51:57;;;;;;;3.88;1.90;;;20.70;1.00;;;;;;4992435;28;20473;-47
2023/05/28 00:54:24;;;;;;;3.67;1.55;;;20.70;1.00;;;;;;4990833;28;20121;-49
2023/05/28 00:56:53;;;;;;;5.70;2.13;;;20.60;1.00;;;;;;4990896;28;20050;-50
2023/05/28 00:59:24;;;;;;;3.70;1.75;;;20.60;1.00;;;;;;4990479;28;20394;-50
2023/05/28 01:01:50;;;;;;;5.00;1.95;;;20.60;1.00;;;;;;4991104;28;20049;-48
2023/05/28 01:04:18;;;;;;;7.15;2.00;;;20.60;1.00;;;;;;4990846;28;20053;-48
2023/05/28 01:06:45;;;;;;;3.85;2.17;;;20.60;1.00;;;;;;4990849;28;20137;-48
2023/05/28 01:09:13;;;;;;;8.10;1.90;;;20.60;1.00;;;;;;4990746;28;20039;-48
2023/05/28 01:11:42;;;;;;;5.13;2.17;;;20.60;1.00;;;;;;4983223;28;20046;-48
2023/05/28 01:14:13;;;;;;;8.27;2.27;;;20.60;1.00;;;;;;4992377;28;20038;-48
2023/05/28 01:16:40;;;;;;;9.35;2.30;;;20.60;1.00;;;;;;4982871;28;20280;-49
2023/05/28 01:19:09;;;;;;;4.82;1.83;;;20.60;1.00;;;;;;4990744;28;20050;-48
2023/05/28 01:21:41;;;;;;;6.22;2.67;;;20.60;1.00;;;;;;4990784;28;20097;-47
2023/05/28 01:24:10;;;;;;;5.00;2.28;;;20.60;1.00;;;;;;4990792;28;20505;-51
2023/05/28 01:26:37;;;;;;;8.90;2.28;;;20.60;1.00;;;;;;4990397;28;20568;-57
2023/05/28 01:29:14;;;;;;;6.38;2.33;;;20.60;1.00;;;;;;4990593;28;20046;-48
2023/05/28 01:31:43;;;;;;;4.93;1.45;;;20.60;1.00;;;;;;4984543;28;20030;-47
2023/05/28 01:34:11;;;;;;;5.32;2.00;;;20.60;1.00;;;;;;4990718;28;20049;-49
2023/05/28 01:36:57;;;;;;;5.75;2.92;;;20.60;1.00;;;;;;4991797;28;20042;-48
2023/05/28 01:39:28;;;;;;;4.55;2.10;;;20.60;1.00;;;;;;4990413;28;20145;-49
2023/05/28 01:41:55;;;;;;;6.43;1.83;;;20.60;1.00;;;;;;4974631;28;20049;-48
2023/05/28 01:44:23;;;;;;;7.13;2.38;;;20.60;1.00;;;;;;4990293;28;20042;-48
2023/05/28 01:46:53;;;;;;;6.50;1.90;;;20.60;1.00;;;;;;4990567;28;20490;-48
2023/05/28 01:49:21;;;;;;;4.53;2.28;;;20.50;1.00;;;;;;4990313;28;20161;-50
2023/05/28 01:51:51;;;;;;;3.20;1.70;;;20.50;1.00;;;;;;4990607;28;20080;-47
2023/05/28 01:54:20;;;;;;;5.43;2.10;;;20.50;1.00;;;;;;4990088;28;20137;-48
2023/05/28 01:56:46;;;;;;;5.93;2.75;;;20.50;1.00;;;;;;4990382;28;20153;-49
2023/05/28 01:59:13;;;;;;;4.28;1.63;;;20.50;1.00;;;;;;4990324;28;20498;-50
2023/05/28 02:01:41;;;;;;;4.47;1.83;;;20.50;1.00;;;;;;4982289;28;20097;-48
2023/05/28 02:04:09;;;;;;;5.75;1.98;;;20.50;1.00;;;;;;4990417;28;20425;-48
2023/05/28 02:06:36;;;;;;;3.60;1.58;;;20.50;1.00;;;;;;4990237;28;20058;-48
2023/05/28 02:09:03;;;;;;;4.45;2.55;;;20.50;1.00;;;;;;4990394;28;20060;-48
2023/05/28 02:11:30;;;;;;;5.07;2.20;;;20.50;1.00;;;;;;4993770;28;20085;-48
2023/05/28 02:13:58;;;;;;;7.20;2.03;;;20.50;1.00;;;;;;4993613;28;20042;-48
2023/05/28 02:16:27;;;;;;;6.75;2.25;;;20.50;1.00;;;;;;4993613;28;20082;-48
2023/05/28 02:18:54;;;;;;;6.68;2.35;;;20.50;1.00;;;;;;4997435;28;20085;-49
2023/05/28 02:21:22;;;;;;;4.28;1.63;;;20.50;1.00;;;;;;4995056;28;20053;-48
2023/05/28 02:23:49;;;;;;;9.38;2.10;;;20.50;1.00;;;;;;4977351;28;20046;-51
2023/05/28 02:26:17;;;;;;;7.32;1.80;;;20.40;1.00;;;;;;4994812;28;20050;-48
2023/05/28 02:28:45;;;;;;;6.68;2.47;;;20.50;1.00;;;;;;4985573;28;20046;-50
2023/05/28 02:31:14;;;;;;;5.07;2.13;;;20.40;1.00;;;;;;4995120;28;20461;-48
2023/05/28 02:33:44;;;;;;;4.80;1.88;;;20.40;1.00;;;;;;4993519;28;20038;-48
2023/05/28 02:36:11;;;;;;;4.40;2.13;;;20.40;1.00;;;;;;4994641;28;20042;-48
2023/05/28 02:38:39;;;;;;;5.10;2.05;;;20.40;1.00;;;;;;4993074;28;20058;-48
2023/05/28 02:41:07;;;;;;;4.25;2.30;;;20.40;1.00;;;;;;4994707;28;20103;-49
2023/05/28 02:43:36;;;;;;;4.13;1.50;;;20.40;1.00;;;;;;4992953;28;20050;-50
2023/05/28 02:46:06;;;;;;;4.50;1.70;;;20.40;1.00;;;;;;4993144;28;20181;-49
2023/05/28 02:48:34;;;;;;;5.43;2.10;;;20.40;1.00;;;;;;4992923;28;20042;-48
2023/05/28 02:51:03;;;;;;;4.05;2.42;;;20.40;1.00;;;;;;4976827;28;20031;-49
2023/05/28 02:53:42;;;;;;;5.05;1.88;;;20.40;1.00;;;;;;4976651;28;20406;-50
2023/05/28 02:56:09;;;;;;;5.18;2.30;;;20.40;1.00;;;;;;4992986;28;20474;-49
2023/05/28 02:58:40;;;;;;;5.38;1.73;;;20.40;1.00;;;;;;4992761;28;20469;-50
2023/05/28 03:01:07;;;;;;;6.20;2.55;;;20.40;1.00;;;;;;4992841;28;20047;-52
2023/05/28 03:03:35;;;;;;;6.88;1.80;;;20.30;1.00;;;;;;4992881;28;20645;-49
2023/05/28 03:06:02;;;;;;;3.15;1.63;;;20.40;1.00;;;;;;4993087;28;20093;-50
2023/05/28 03:08:36;;;;;;;4.47;2.00;;;20.30;1.00;;;;;;4992915;28;20441;-49
2023/05/28 03:11:03;;;;;;;6.93;1.98;;;20.40;1.00;;;;;;4994304;28;20051;-48
2023/05/28 03:13:29;;;;;;;7.93;2.67;;;20.40;1.00;;;;;;4994003;28;20650;-51
2023/05/28 03:15:58;;;;;;;4.82;1.58;;;20.40;1.00;;;;;;4992726;28;20038;-49
2023/05/28 03:18:26;;;;;;;3.83;1.90;;;20.40;1.00;;;;;;4992512;28;20422;-48
2023/05/28 03:20:53;;;;;;;5.80;2.17;;;20.40;1.00;;;;;;4992764;28;20038;-50
2023/05/28 03:23:20;;;;;;;4.22;2.03;;;20.40;1.00;;;;;;4992539;28;20065;-49
2023/05/28 03:25:59;;;;;;;5.20;1.92;;;20.30;1.00;;;;;;4992432;28;20046;-52
2023/05/28 03:28:29;;;;;;;6.78;1.90;;;20.40;1.00;;;;;;4991453;28;20042;-48
2023/05/28 03:31:15;;;;;;;4.13;1.90;;;20.30;1.00;;;;;;4992272;28;20050;-51
2023/05/28 03:33:42;;;;;;;4.78;1.75;;;20.30;1.00;;;;;;4992187;28;20459;-48
2023/05/28 03:36:10;;;;;;;6.03;1.77;;;20.30;1.00;;;;;;4992339;28;20073;-48
2023/05/28 03:38:38;;;;;;;8.98;2.38;;;20.30;1.00;;;;;;4991644;28;20409;-48
2023/05/28 03:41:05;;;;;;;6.47;1.63;;;20.30;1.00;;;;;;4992405;28;20090;-48
2023/05/28 03:43:34;;;;;;;5.75;2.03;;;20.30;1.00;;;;;;4991771;28;20506;-48
2023/05/28 03:46:02;;;;;;;3.97;1.92;;;20.30;1.00;;;;;;4991938;28;20034;-47
2023/05/28 03:48:28;;;;;;;2.75;1.50;;;20.30;1.00;;;;;;4991796;28;20125;-50
2023/05/28 03:50:56;;;;;;;5.65;2.28;;;20.30;1.00;;;;;;4992149;28;20042;-49
2023/05/28 03:53:23;;;;;;;3.83;1.75;;;20.30;1.00;;;;;;4991825;28;20074;-48
2023/05/28 03:55:51;;;;;;;4.10;1.65;;;20.30;1.00;;;;;;4993393;28;20034;-48
2023/05/28 03:58:20;;;;;;;6.97;2.35;;;20.30;1.00;;;;;;4991760;28;20045;-48
2023/05/28 04:00:47;;;;;;;5.38;1.92;;;20.30;1.00;;;;;;4993184;28;20042;-51
2023/05/28 04:03:14;;;;;;;4.68;2.25;;;20.30;1.00;;;;;;4991971;28;20046;-47
2023/05/28 04:05:44;;;;;;;4.57;1.95;;;20.20;1.00;;;;;;4991707;28;20054;-48
2023/05/28 04:08:11;;;;;;;4.65;1.67;;;20.20;1.00;;;;;;4991358;28;20062;-47
2023/05/28 04:10:38;;;;;;;6.20;1.88;;;20.20;1.00;;;;;;4991737;28;20065;-47
2023/05/28 04:13:05;;;;;;;4.90;1.92;;;20.20;1.00;;;;;;4991699;28;20576;-48
2023/05/28 04:15:32;;;;;;;6.40;2.08;;;20.20;1.00;;;;;;4991534;28;20042;-48
2023/05/28 04:18:00;;;;;;;4.25;1.88;;;20.20;1.00;;;;;;4991384;28;20072;-48
2023/05/28 04:20:27;;;;;;;6.32;2.33;;;20.20;1.00;;;;;;4991522;28;20445;-50
2023/05/28 04:22:54;;;;;;;4.40;1.65;;;20.20;1.00;;;;;;4993016;28;20045;-48
2023/05/28 04:25:24;;;;;;;4.15;2.17;;;20.20;1.00;;;;;;4991525;28;20105;-51
2023/05/28 04:27:51;;;;;;;7.13;1.77;;;20.20;1.00;;;;;;4984696;28;20142;-48
2023/05/28 04:30:20;;;;;;;3.25;1.67;;;20.20;1.00;;;;;;4991607;28;20049;-49
2023/05/28 04:32:51;;;;;;;5.38;2.13;;;20.20;1.00;;;;;;4990828;28;20622;-59
2023/05/28 04:35:19;;;;;;;4.05;2.13;;;20.20;1.00;;;;;;4991395;28;20394;-49
2023/05/28 04:37:46;;;;;;;4.72;2.20;;;20.20;1.00;;;;;;4992474;28;20454;-50
2023/05/28 04:40:12;;;;;;;4.72;1.85;;;20.20;1.00;;;;;;4992738;28;20050;-48
2023/05/28 04:42:40;;;;;;;3.90;1.85;;;20.20;1.00;;;;;;4990964;28;20179;-48
2023/05/28 04:45:10;;;;;;;4.43;2.25;;;20.20;1.00;;;;;;4990914;28;20083;-48
2023/05/28 04:47:40;;;;;;;5.53;2.42;;;20.10;1.00;;;;;;4990819;28;20038;-48
2023/05/28 04:50:08;;;;;;;8.93;2.40;;;20.20;1.00;;;;;;4992262;28;20073;-49
2023/05/28 04:52:37;;;;;;;4.35;2.42;;;20.20;1.00;;;;;;4990738;28;20042;-50
2023/05/28 04:55:04;;;;;;;4.93;1.67;;;20.20;1.00;;;;;;4991131;28;20049;-49
2023/05/28 04:57:32;;;;;;;3.85;1.48;;;20.20;1.00;;;;;;4990573;28;20572;-48
2023/05/28 05:00:02;;;;;;;5.40;2.10;;;20.10;1.00;;;;;;4974626;28;20038;-48
2023/05/28 05:02:29;;;;;;;4.95;1.80;;;20.10;1.00;;;;;;4974574;28;20483;-48
2023/05/28 05:04:56;;;;;;;4.55;2.00;;;20.20;1.00;;;;;;4992241;28;20043;-48
2023/05/28 05:07:23;;;;;;;6.85;2.30;;;20.10;1.00;;;;;;4990942;28;20547;-48
2023/05/28 05:09:50;;;;;;;3.70;1.77;;;20.10;1.00;;;;;;4990549;28;20042;-49
2023/05/28 05:12:17;;;;;;;6.07;2.50;;;20.10;1.00;;;;;;4990811;28;20046;-48
2023/05/28 05:14:44;;;;;;;4.50;1.88;;;20.10;1.00;;;;;;4990741;28;20038;-49
2023/05/28 05:17:12;;;;;;;5.35;2.10;;;20.10;1.00;;;;;;4990772;28;20545;-48
2023/05/28 05:19:39;;;;;;;3.75;2.10;;;20.10;1.00;;;;;;4990377;28;20050;-48
2023/05/28 05:22:07;;;;;;;5.25;2.83;;;20.10;1.00;;;;;;4990667;28;20046;-49
2023/05/28 05:24:36;;;;;;;5.60;2.53;;;20.10;1.00;;;;;;4990560;28;20510;-48
2023/05/28 05:27:03;;;;;;;6.57;2.05;;;20.10;1.00;;;;;;4990543;28;20064;-48
2023/05/28 05:29:30;;;;;;;4.47;2.30;;;20.10;1.00;;;;;;4990374;28;20133;-49
2023/05/28 05:31:57;;;;;;;4.85;2.22;;;20.10;1.00;;;;;;4992007;28;20049;-48
2023/05/28 05:34:24;;;;;;;6.18;2.78;;;20.10;1.00;;;;;;4990509;28;20089;-48
2023/05/28 05:37:10;;;;;;;4.13;1.88;;;20.10;1.00;;;;;;4986493;28;20524;-50
2023/05/28 05:40:06;;;;;;;4.65;2.20;;;20.10;1.00;;;;;;4983827;28;20593;-48
2023/05/28 05:42:53;;;;;;;4.55;2.20;;;20.10;1.00;;;;;;4991580;28;20429;-48
2023/05/28 05:45:21;;;;;;;6.63;1.98;;;20.10;1.00;;;;;;4992465;28;20093;-49
2023/05/28 05:47:49;;;;;;;6.75;2.25;;;20.10;1.00;;;;;;4993640;28;20122;-49
2023/05/28 05:50:16;;;;;;;4.70;2.22;;;20.10;1.00;;;;;;4994146;28;20039;-49
2023/05/28 05:52:44;;;;;;;4.05;1.85;;;20.10;1.00;;;;;;4993615;28;20091;-48
2023/05/28 05:55:11;;;;;;;3.47;2.00;;;20.10;1.00;;;;;;4994002;28;20096;-49
2023/05/28 05:57:39;;;;;;;3.90;1.83;;;20.10;1.00;;;;;;4995002;28;20050;-50
2023/05/28 06:00:08;;;;;;;4.78;2.47;;;20.10;1.00;;;;;;4977520;28;20493;-50
2023/05/28 06:02:45;;;;;;;6.40;1.98;;;20.20;1.00;;;;;;4978968;28;20077;-49
2023/05/28 06:05:45;;;;;;;4.47;1.90;;;20.10;1.00;;;;;;4972509;28;20054;-49
2023/05/28 06:08:32;;;;;;;4.10;2.25;;;20.20;1.00;;;;;;4993274;28;20042;-49
2023/05/28 06:11:02;;;;;;;3.90;1.73;;;20.20;1.00;;;;;;4994234;28;20465;-49
2023/05/28 06:13:31;;;;;;;5.50;2.00;;;20.20;1.00;;;;;;4993652;28;20050;-48
2023/05/28 06:15:59;;;;;;;5.28;2.00;;;20.20;1.00;;;;;;4969747;28;20092;-47
2023/05/28 06:18:26;;;;;;;3.90;1.90;;;20.20;1.00;;;;;;4994674;28;20057;-48
2023/05/28 06:20:54;;;;;;;3.63;1.92;;;20.20;1.00;;;;;;4993801;28;20510;-49
2023/05/28 06:23:21;;;;;;;4.18;1.52;;;20.30;1.00;;;;;;4993482;28;20038;-48
2023/05/28 06:25:50;;;;;;;6.22;2.63;;;20.30;1.00;;;;;;4993212;28;20057;-49
2023/05/28 06:28:18;;;;;;;4.93;1.80;;;20.30;1.00;;;;;;4993150;28;20439;-49
2023/05/28 06:30:45;;;;;;;8.45;2.28;;;20.30;1.00;;;;;;4993385;28;20046;-48
2023/05/28 06:33:12;;;;;;;3.97;1.92;;;20.30;1.00;;;;;;4993574;28;20038;-50
2023/05/28 06:35:40;;;;;;;4.88;1.90;;;20.30;1.00;;;;;;4992842;28;20043;-50
2023/05/28 06:38:06;;;;;;;2.83;1.33;;;20.30;1.00;;;;;;4994308;28;20046;-51
2023/05/28 06:40:33;;;;;;;3.30;1.88;;;20.30;1.00;;;;;;4992657;28;20137;-49
2023/05/28 06:43:01;;;;;;;6.72;2.28;;;20.30;1.00;;;;;;4976878;28;20046;-51
2023/05/28 06:45:54;;;;;;;6.45;2.63;;;20.30;1.00;;;;;;4992883;28;20462;-50
2023/05/28 06:48:23;;;;;;;5.57;2.55;;;20.40;1.00;;;;;;4976379;28;20099;-49
2023/05/28 06:50:50;;;;;;;4.13;2.40;;;20.30;1.00;;;;;;4994370;28;20042;-53
2023/05/28 06:53:16;;;;;;;6.03;2.05;;;20.40;1.00;;;;;;4992880;28;20061;-49
2023/05/28 06:55:44;;;;;;;4.60;1.98;;;20.40;1.00;;;;;;4992276;28;20391;-49
2023/05/28 06:58:43;;;;;;;5.97;1.75;;;20.40;1.00;;;;;;4984690;28;20121;-50
2023/05/28 07:01:29;;;;;;;3.83;1.92;;;20.40;1.00;;;;;;4994572;28;20053;-49
2023/05/28 07:04:14;;;;;;;4.60;2.03;;;20.40;1.00;;;;;;4994319;28;20054;-49
2023/05/28 07:06:44;;;;;;;4.70;2.10;;;20.40;1.00;;;;;;4993978;28;20038;-49
2023/05/28 07:09:22;;;;;;;3.60;2.08;;;20.40;1.00;;;;;;4992554;28;20101;-50
2023/05/28 07:11:50;;;;;;;7.30;2.78;;;20.40;1.00;;;;;;4993605;28;20035;-49
2023/05/28 07:14:17;;;;;;;7.10;2.10;;;20.40;1.00;;;;;;4992471;28;20042;-49
2023/05/28 07:16:44;;;;;;;4.75;2.22;;;20.50;1.00;;;;;;4992347;28;20042;-49
2023/05/28 07:19:11;;;;;;;3.28;1.70;;;20.50;1.00;;;;;;4992276;28;20234;-50
2023/05/28 07:21:38;;;;;;;8.05;2.28;;;20.50;1.00;;;;;;4992345;28;20133;-51
2023/05/28 07:24:06;;;;;;;4.05;1.42;;;20.50;1.00;;;;;;4992405;28;20073;-49
2023/05/28 07:26:34;;;;;;;5.85;2.08;;;20.50;1.00;;;;;;4992253;28;20137;-49
2023/05/28 07:29:02;;;;;;;4.00;2.20;;;20.50;1.00;;;;;;4991988;28;20129;-49
2023/05/28 07:31:31;;;;;;;7.07;2.22;;;20.60;1.00;;;;;;4993621;28;20117;-49
2023/05/28 07:33:59;;;;;;;2.85;1.90;;;20.60;1.00;;;;;;4991879;28;20089;-48
2023/05/28 07:36:31;;;;;;;7.97;2.30;;;20.60;1.00;;;;;;4992089;28;20038;-51
2023/05/28 07:38:58;;;;;;;4.72;1.92;;;20.60;1.00;;;;;;4991576;28;20280;-50
2023/05/28 07:41:25;;;;;;;5.63;2.30;;;20.60;1.00;;;;;;4975827;28;20490;-49
2023/05/28 07:43:58;;;;;;;4.88;2.35;;;20.60;1.00;;;;;;4975502;28;20046;-49
2023/05/28 07:46:27;;;;;;;5.80;2.40;;;20.60;1.00;;;;;;4991831;28;20421;-50
2023/05/28 07:49:06;;;;;;;7.85;1.65;;;20.70;1.00;;;;;;4984606;28;20044;-49
2023/05/28 07:51:45;;;;;;;4.75;1.90;;;20.70;1.00;;;;;;4991690;28;20043;-48
2023/05/28 07:54:24;;;;;;;4.10;2.25;;;20.70;1.00;;;;;;4975494;28;20046;-48
2023/05/28 07:56:52;;;;;;;6.28;2.03;;;20.70;1.00;;;;;;4975210;28;20042;-50
2023/05/28 07:59:30;;;;;;;4.35;2.05;;;20.70;1.00;;;;;;4991675;28;20056;-49
2023/05/28 08:01:57;;;;;;;3.75;1.85;;;20.70;1.00;;;;;;4991433;28;20042;-49
2023/05/28 08:04:25;;;;;;;4.78;1.88;;;20.80;1.00;;;;;;4975365;28;20061;-48
2023/05/28 08:06:52;;;;;;;3.03;1.55;;;20.80;1.00;;;;;;4975123;28;20053;-48
2023/05/28 08:09:20;;;;;;;5.15;2.22;;;20.80;1.00;;;;;;4990581;28;20120;-49
2023/05/28 08:11:50;;;;;;;4.22;1.77;;;20.80;1.00;;;;;;4991539;28;20050;-48
2023/05/28 08:14:19;;;;;;;7.38;1.90;;;20.80;1.00;;;;;;4991614;28;20521;-49
2023/05/28 08:16:48;;;;;;;5.03;2.33;;;20.80;1.00;;;;;;4991398;28;20050;-48
2023/05/28 08:19:33;;;;;;;5.53;1.90;;;20.90;1.00;;;;;;4992797;28;20050;-48
2023/05/28 08:22:08;;;;;;;4.10;1.67;;;20.90;1.00;;;;;;4991343;28;20069;-48
2023/05/28 08:24:37;;;;;;;3.90;1.65;;;20.90;1.00;;;;;;4991421;28;20050;-49
2023/05/28 08:27:06;;;;;;;3.60;1.63;;;20.90;1.00;;;;;;4983811;28;20038;-49
2023/05/28 08:29:33;;;;;;;6.95;2.22;;;20.90;1.00;;;;;;4991142;28;20410;-50
2023/05/28 08:32:04;;;;;;;3.45;1.75;;;21.00;1.00;;;;;;4991388;28;20038;-51
2023/05/28 08:34:41;;;;;;;7.60;1.95;;;21.00;1.00;;;;;;4991160;28;20047;-49
2023/05/28 08:37:08;;;;;;;4.95;1.90;;;21.00;1.00;;;;;;4991023;28;20426;-48
2023/05/28 08:39:48;;;;;;;8.18;2.47;;;21.00;1.00;;;;;;4991128;28;20046;-48
2023/05/28 08:42:16;;;;;;;3.60;1.60;;;21.00;1.00;;;;;;4991029;28;20046;-48
2023/05/28 08:44:44;;;;;;;5.25;1.98;;;21.00;1.00;;;;;;4990699;28;20088;-53
2023/05/28 08:47:12;;;;;;;5.75;2.03;;;21.10;1.00;;;;;;4991110;28;20133;-50
2023/05/28 08:49:53;;;;;;;4.75;1.90;;;21.10;1.00;;;;;;4992019;28;20041;-52
2023/05/28 08:52:26;;;;;;;3.88;1.73;;;21.10;1.00;;;;;;4991118;28;20045;-48
2023/05/28 08:54:53;;;;;;;2.85;1.55;;;21.10;1.00;;;;;;4990862;28;20544;-48
2023/05/28 08:57:21;;;;;;;4.20;1.67;;;21.10;1.00;;;;;;4990930;28;20137;-48
2023/05/28 09:00:00;;;;;;;5.75;1.85;;;21.10;1.00;;;;;;4990770;28;20062;-51
2023/05/28 09:02:27;;;;;;;4.20;2.00;;;21.10;1.00;;;;;;4991621;28;20146;-53
2023/05/28 09:04:56;;;;;;;3.47;1.55;;;21.20;1.00;;;;;;4990655;28;20513;-48
2023/05/28 09:07:26;;;;;;;6.63;1.80;;;21.20;1.00;;;;;;4990843;28;20051;-48
2023/05/28 09:09:57;;;;;;;3.20;1.70;;;21.20;1.00;;;;;;4990713;28;20093;-49
2023/05/28 09:12:28;;;;;;;5.27;1.90;;;21.20;1.00;;;;;;4990802;28;20049;-50
2023/05/28 09:15:00;;;;;;;5.20;2.95;;;21.20;1.00;;;;;;4990776;28;20506;-48
2023/05/28 09:17:37;;;;;;;4.70;2.00;;;21.20;1.00;;;;;;4990905;28;20042;-50
2023/05/28 09:20:14;;;;;;;4.57;1.95;;;21.20;1.00;;;;;;4985542;28;20066;-52
2023/05/28 09:22:43;;;;;;;5.45;2.03;;;21.20;1.00;;;;;;4994527;28;20073;-54
2023/05/28 09:25:36;;;;;;;3.58;1.90;;;21.20;1.00;;;;;;4980271;28;20055;-48
2023/05/28 09:28:13;;;;;;;3.85;1.73;;;21.30;1.00;;;;;;4987288;28;20494;-52
2023/05/28 09:30:41;;;;;;;5.10;2.45;;;21.30;1.00;;;;;;4996062;28;20073;-50
2023/05/28 09:33:09;;;;;;;6.35;1.60;;;21.30;1.00;;;;;;4987973;28;20045;-48
2023/05/28 09:35:36;;;;;;;6.10;2.10;;;21.30;1.00;;;;;;4995791;28;20057;-50
2023/05/28 09:38:07;;;;;;;5.28;2.03;;;21.30;1.00;;;;;;4995448;28;20042;-48
2023/05/28 09:40:42;;;;;;;3.28;1.92;;;21.30;1.00;;;;;;4995831;28;20047;-50
2023/05/28 09:43:10;;;;;;;6.22;2.33;;;21.40;1.00;;;;;;4987631;28;20042;-52
2023/05/28 09:45:37;;;;;;;5.70;2.45;;;21.40;1.00;;;;;;4995466;28;20161;-51
2023/05/28 09:48:04;;;;;;;5.13;2.30;;;21.40;1.00;;;;;;4994927;28;20038;-50
2023/05/28 09:50:31;;;;;;;4.95;2.42;;;21.30;1.00;;;;;;4995431;28;20052;-50
2023/05/28 09:52:59;;;;;;;4.10;2.35;;;21.40;1.00;;;;;;4994991;28;20069;-48
2023/05/28 09:55:28;;;;;;;7.78;2.85;;;21.40;1.00;;;;;;4995357;28;20050;-48
2023/05/28 09:58:03;;;;;;;7.50;2.67;;;21.40;1.00;;;;;;4994591;28;20081;-51
2023/05/28 10:00:33;;;;;;;4.97;2.33;;;21.40;1.00;;;;;;4995328;28;20486;-51
2023/05/28 10:03:28;;;;;;;7.30;2.40;;;21.40;1.00;;;;;;4994918;28;20057;-48
2023/05/28 10:06:06;;;;;;;5.13;2.42;;;21.40;1.00;;;;;;4995032;28;20039;-49
2023/05/28 10:08:37;;;;;;;4.80;2.35;;;21.40;1.00;;;;;;4994780;28;20043;-51
2023/05/28 10:11:14;;;;;;;7.03;2.83;;;21.40;1.00;;;;;;4994970;28;20149;-49
2023/05/28 10:13:42;;;;;;;5.55;3.50;;;21.40;1.00;;;;;;4994929;28;20052;-51
2023/05/28 10:16:09;;;;;;;4.93;2.17;;;21.40;1.00;;;;;;4994846;28;20039;-49
2023/05/28 10:18:36;;;;;;;4.72;2.75;;;21.40;1.00;;;;;;4994750;28;20092;-50
2023/05/28 10:21:07;;;;;;;6.93;2.35;;;21.40;1.00;;;;;;4995041;28;20044;-48
2023/05/28 10:23:34;;;;;;;4.72;2.33;;;21.40;1.00;;;;;;4994586;28;20085;-48
2023/05/28 10:26:02;;;;;;;4.95;2.58;;;21.40;1.00;;;;;;4994797;28;20125;-49
2023/05/28 10:28:30;;;;;;;4.90;2.28;;;21.40;1.00;;;;;;4994715;28;20046;-48
2023/05/28 10:31:04;;;;;;;4.85;2.53;;;21.40;1.00;;;;;;4993706;28;20053;-49
2023/05/28 10:33:31;;;;;;;4.10;2.58;;;21.40;1.00;;;;;;4994394;28;20125;-53
2023/05/28 10:36:01;;;;;;;5.82;1.98;;;21.40;1.00;;;;;;4994472;28;20523;-48
2023/05/28 10:38:29;;;;;;;4.50;2.88;;;21.40;1.00;;;;;;4994461;28;20078;-48
2023/05/28 10:41:01;;;;;;;4.68;2.40;;;21.40;1.00;;;;;;4994469;28;20457;-51
2023/05/28 10:43:47;;;;;;;7.05;2.67;;;21.50;1.00;;;;;;4994372;28;20494;-50
2023/05/28 10:46:24;;;;;;;6.40;3.20;;;21.40;1.00;;;;;;4986873;28;20125;-52
2023/05/28 10:49:13;;;;;;;4.72;2.35;;;21.40;1.00;;;;;;4994192;28;20042;-50
2023/05/28 10:51:46;;;;;;;5.60;2.92;;;21.50;1.00;;;;;;4994593;28;20046;-48
2023/05/28 10:54:24;;;;;;;6.65;2.58;;;21.40;1.00;;;;;;4992633;28;20066;-49
2023/05/28 10:57:09;;;;;;;5.70;3.05;;;21.40;1.00;;;;;;4994270;28;20097;-52
2023/05/28 10:59:42;;;;;;;4.15;2.38;;;21.40;1.00;;;;;;4994265;28;20109;-49
2023/05/28 11:02:09;;;;;;;;;;;21.40;1.00;;;;;;4994697;28;20050;-52
2023/05/28 11:04:36;;;;;;;5.32;2.05;;;21.40;1.00;;;;;;4994200;28;20340;-47
2023/05/28 11:07:05;;;;;;;5.95;3.13;;;21.40;1.00;;;;;;4994214;28;20041;-47
2023/05/28 11:09:32;;;;;;;7.40;3.05;;;21.40;1.00;;;;;;4993980;28;20437;-48
2023/05/28 11:12:01;;;;;;;4.60;2.10;;;21.40;1.00;;;;;;4993908;28;20050;-48
2023/05/28 11:14:33;;;;;;;5.22;2.63;;;21.40;1.00;;;;;;4994019;28;20133;-50
2023/05/28 11:17:00;;;;;;;4.83;3.20;;;21.40;1.00;;;;;;4993808;28;20134;-51
2023/05/28 11:19:27;;;;;;;5.20;2.53;;;21.40;1.00;;;;;;4992481;28;20778;-48
2023/05/28 11:21:55;;;;;;;5.60;2.95;;;21.40;1.00;;;;;;4993870;28;20050;-49
2023/05/28 11:24:22;;;;;;;4.22;2.72;;;21.40;1.00;;;;;;4993925;28;20061;-50
2023/05/28 11:26:52;;;;;;;6.00;2.70;;;21.40;1.00;;;;;;4993464;28;20046;-52
2023/05/28 11:29:20;;;;;;;5.43;2.45;;;21.40;1.00;;;;;;4993718;28;20525;-51
2023/05/28 11:31:46;;;;;;;6.22;3.10;;;21.40;1.00;;;;;;4993694;28;20121;-50
2023/05/28 11:34:13;;;;;;;7.75;2.40;;;21.30;1.00;;;;;;4985646;28;20038;-50
2023/05/28 11:36:44;;;;;;;3.78;2.25;;;21.40;1.00;;;;;;4993402;28;20042;-51
2023/05/28 11:39:11;;;;;;;5.88;2.53;;;21.40;1.00;;;;;;4993391;28;20077;-50
2023/05/28 11:41:38;;;;;;;6.05;2.40;;;21.30;1.00;;;;;;4993763;28;20082;-51
2023/05/28 11:44:23;;;;;;;5.13;2.53;;;21.40;1.00;;;;;;4992873;28;20449;-48
2023/05/28 11:46:53;;;;;;;5.95;2.58;;;21.30;1.00;;;;;;4992266;28;20046;-49
2023/05/28 11:49:21;;;;;;;5.93;2.30;;;21.40;1.00;;;;;;4993322;28;20038;-51
2023/05/28 11:51:53;;;;;;;4.35;2.42;;;21.30;1.00;;;;;;4993394;28;20081;-54
2023/05/28 11:54:21;;;;;;;6.85;2.60;;;21.30;1.00;;;;;;4991958;28;20046;-50
2023/05/28 11:56:49;;;;;;;5.05;2.97;;;21.30;1.00;;;;;;4993261;28;20042;-52
2023/05/28 11:59:17;;;;;;;10.95;2.88;;;21.30;1.00;;;;;;4985459;28;20049;-52
2023/05/28 12:01:44;;;;;;;4.95;2.40;;;21.30;1.00;;;;;;4993464;28;20552;-50
2023/05/28 12:04:11;;;;;;;4.38;2.10;;;21.30;1.00;;;;;;4993157;28;20042;-50
2023/05/28 12:07:00;;;;;;;4.43;1.90;;;21.30;1.00;;;;;;4993544;28;20093;-52
2023/05/28 12:09:27;;;;;;;4.38;2.47;;;21.30;1.00;;;;;;4986881;28;20038;-51
2023/05/28 12:12:12;;;;;;;4.68;2.85;;;21.30;1.00;;;;;;4993207;28;20154;-52
2023/05/28 12:14:39;;;;;;;4.22;2.28;;;21.30;1.00;;;;;;4993581;28;20413;-52
2023/05/28 12:17:12;;;;;;;5.50;2.38;;;21.30;1.00;;;;;;4992060;28;20050;-50
2023/05/28 12:19:39;;;;;;;4.88;2.63;;;21.20;1.00;;;;;;4992573;28;20585;-53
2023/05/28 12:22:18;;;;;;;3.60;1.98;;;21.30;1.00;;;;;;4992755;28;20043;-49
2023/05/28 12:24:51;;;;;;;7.55;2.88;;;21.20;1.00;;;;;;4992795;28;20046;-51
2023/05/28 12:27:18;;;;;;;8.18;2.78;;;21.30;1.00;;;;;;4992848;28;20493;-49
2023/05/28 12:29:45;;;;;;;6.22;2.20;;;21.30;1.00;;;;;;4992800;28;20466;-49
2023/05/28 12:32:12;;;;;;;4.13;2.03;;;21.20;1.00;;;;;;4992344;28;20046;-49
2023/05/28 12:34:39;;;;;;;5.68;2.70;;;21.20;1.00;;;;;;4992661;28;20061;-50
2023/05/28 12:37:06;;;;;;;6.45;2.35;;;21.20;1.00;;;;;;4992521;28;20533;-49
2023/05/28 12:39:35;;;;;;;7.28;2.15;;;21.20;1.00;;;;;;4992641;28;20046;-49
2023/05/28 12:42:03;;;;;;;6.35;2.15;;;21.20;1.00;;;;;;4992353;28;20162;-49
2023/05/28 12:44:30;;;;;;;4.43;1.98;;;21.20;1.00;;;;;;4992363;28;20489;-50
2023/05/28 12:46:56;;;;;;;4.40;1.92;;;21.30;1.00;;;;;;4992179;28;20046;-50
2023/05/28 12:49:23;;;;;;;7.63;2.28;;;21.20;1.00;;;;;;4992350;28;20053;-51
2023/05/28 12:51:50;;;;;;;5.07;2.25;;;21.20;1.00;;;;;;4992239;28;20062;-49
2023/05/28 12:54:17;;;;;;;6.00;2.45;;;21.20;1.00;;;;;;4991542;28;20490;-49
2023/05/28 12:56:43;;;;;;;8.48;2.72;;;21.20;1.00;;;;;;4992029;28;20042;-50
2023/05/28 12:59:23;;;;;;;6.90;2.03;;;21.20;1.00;;;;;;4991786;28;20129;-53
2023/05/28 13:01:50;;;;;;;6.20;1.85;;;21.20;1.00;;;;;;4992163;28;20498;-47
2023/05/28 13:04:18;;;;;;;3.40;2.10;;;21.20;1.00;;;;;;4992027;28;20449;-49
2023/05/28 13:06:45;;;;;;;5.93;2.30;;;21.20;1.00;;;;;;4992014;28;20129;-47
2023/05/28 13:09:12;;;;;;;6.25;2.30;;;21.20;1.00;;;;;;4991470;28;20074;-48
2023/05/28 13:11:40;;;;;;;3.78;1.85;;;21.20;1.00;;;;;;4992325;28;20046;-49